sensor_id;sensor_type;location;lat;lon;timestamp;P1;durP1;ratioP1;P2;durP2;ratioP2
323;SDS011;149;51.094;17.002;2023-04-24T00:02:10;18.60;;;12.25;;
323;SDS011;149;51.094;17.002;2023-04-24T00:04:37;16.23;;;12.60;;
323;SDS011;149;51.094;17.002;2023-04-24T00:07:07;16.80;;;13.27;;
323;SDS011;149;51.094;17.002;2023-04-24T00:09:35;16.05;;;11.90;;
323;SDS011;149;51.094;17.002;2023-04-24T00:12:01;19.23;;;13.48;;
323;SDS011;149;51.094;17.002;2023-04-24T00:14:31;15.50;;;12.77;;
323;SDS011;149;51.094;17.002;2023-04-24T00:16:58;14.65;;;13.00;;
323;SDS011;149;51.094;17.002;2023-04-24T00:19:25;15.32;;;12.07;;
323;SDS011;149;51.094;17.002;2023-04-24T00:21:52;15.90;;;11.77;;
323;SDS011;149;51.094;17.002;2023-04-24T00:24:21;16.67;;;12.00;;
323;SDS011;149;51.094;17.002;2023-04-24T00:26:48;16.55;;;13.30;;
323;SDS011;149;51.094;17.002;2023-04-24T00:29:15;14.55;;;13.02;;
323;SDS011;149;51.094;17.002;2023-04-24T00:31:42;17.90;;;13.25;;
323;SDS011;149;51.094;17.002;2023-04-24T00:34:09;14.00;;;12.50;;
323;SDS011;149;51.094;17.002;2023-04-24T00:36:38;15.13;;;12.18;;
323;SDS011;149;51.094;17.002;2023-04-24T00:39:05;14.82;;;13.00;;
323;SDS011;149;51.094;17.002;2023-04-24T00:41:32;15.43;;;12.73;;
323;SDS011;149;51.094;17.002;2023-04-24T00:44:01;14.38;;;12.98;;
323;SDS011;149;51.094;17.002;2023-04-24T00:46:29;16.08;;;13.35;;
323;SDS011;149;51.094;17.002;2023-04-24T00:48:57;15.63;;;12.93;;
323;SDS011;149;51.094;17.002;2023-04-24T00:51:28;18.13;;;14.30;;
323;SDS011;149;51.094;17.002;2023-04-24T00:53:54;17.58;;;14.57;;
323;SDS011;149;51.094;17.002;2023-04-24T00:56:23;16.98;;;11.90;;
323;SDS011;149;51.094;17.002;2023-04-24T00:58:50;14.38;;;12.80;;
323;SDS011;149;51.094;17.002;2023-04-24T01:01:20;14.48;;;12.95;;
323;SDS011;149;51.094;17.002;2023-04-24T01:03:49;18.88;;;15.30;;
323;SDS011;149;51.094;17.002;2023-04-24T01:06:18;15.98;;;13.90;;
323;SDS011;149;51.094;17.002;2023-04-24T01:08:49;15.60;;;12.48;;
323;SDS011;149;51.094;17.002;2023-04-24T01:11:16;17.70;;;13.20;;
323;SDS011;149;51.094;17.002;2023-04-24T01:13:44;16.60;;;14.02;;
323;SDS011;149;51.094;17.002;2023-04-24T01:16:12;26.77;;;13.57;;
323;SDS011;149;51.094;17.002;2023-04-24T01:18:39;17.63;;;14.52;;
323;SDS011;149;51.094;17.002;2023-04-24T01:21:10;15.65;;;14.00;;
323;SDS011;149;51.094;17.002;2023-04-24T01:23:45;17.17;;;14.35;;
323;SDS011;149;51.094;17.002;2023-04-24T01:26:13;18.10;;;15.13;;
323;SDS011;149;51.094;17.002;2023-04-24T01:28:42;15.43;;;13.70;;
323;SDS011;149;51.094;17.002;2023-04-24T01:31:09;15.57;;;13.90;;
323;SDS011;149;51.094;17.002;2023-04-24T01:33:36;17.13;;;13.10;;
323;SDS011;149;51.094;17.002;2023-04-24T01:36:03;15.63;;;14.13;;
323;SDS011;149;51.094;17.002;2023-04-24T01:38:33;15.50;;;13.27;;
323;SDS011;149;51.094;17.002;2023-04-24T01:41:02;15.63;;;13.95;;
323;SDS011;149;51.094;17.002;2023-04-24T01:43:29;16.48;;;13.50;;
323;SDS011;149;51.094;17.002;2023-04-24T01:45:58;17.88;;;13.23;;
323;SDS011;149;51.094;17.002;2023-04-24T01:48:25;15.60;;;13.57;;
323;SDS011;149;51.094;17.002;2023-04-24T01:50:53;15.05;;;13.38;;
323;SDS011;149;51.094;17.002;2023-04-24T01:53:20;17.10;;;13.15;;
323;SDS011;149;51.094;17.002;2023-04-24T01:55:47;14.65;;;13.10;;
323;SDS011;149;51.094;17.002;2023-04-24T01:58:13;17.15;;;13.85;;
323;SDS011;149;51.094;17.002;2023-04-24T02:00:41;21.70;;;16.45;;
323;SDS011;149;51.094;17.002;2023-04-24T02:03:08;18.20;;;14.15;;
323;SDS011;149;51.094;17.002;2023-04-24T02:05:35;18.20;;;13.88;;
323;SDS011;149;51.094;17.002;2023-04-24T02:08:02;18.38;;;15.48;;
323;SDS011;149;51.094;17.002;2023-04-24T02:10:29;14.60;;;13.02;;
323;SDS011;149;51.094;17.002;2023-04-24T02:12:55;16.17;;;14.50;;
323;SDS011;149;51.094;17.002;2023-04-24T02:15:23;17.80;;;13.50;;
323;SDS011;149;51.094;17.002;2023-04-24T02:17:50;20.27;;;14.75;;
323;SDS011;149;51.094;17.002;2023-04-24T02:20:19;18.80;;;15.38;;
323;SDS011;149;51.094;17.002;2023-04-24T02:22:49;22.77;;;15.70;;
323;SDS011;149;51.094;17.002;2023-04-24T02:25:15;16.50;;;14.30;;
323;SDS011;149;51.094;17.002;2023-04-24T02:27:42;18.25;;;14.38;;
323;SDS011;149;51.094;17.002;2023-04-24T02:30:09;17.63;;;15.23;;
323;SDS011;149;51.094;17.002;2023-04-24T02:32:37;16.35;;;14.68;;
323;SDS011;149;51.094;17.002;2023-04-24T02:35:05;15.75;;;13.60;;
323;SDS011;149;51.094;17.002;2023-04-24T02:37:33;17.27;;;12.85;;
323;SDS011;149;51.094;17.002;2023-04-24T02:40:00;22.30;;;14.75;;
323;SDS011;149;51.094;17.002;2023-04-24T02:42:26;19.23;;;14.70;;
323;SDS011;149;51.094;17.002;2023-04-24T02:44:53;16.13;;;14.43;;
323;SDS011;149;51.094;17.002;2023-04-24T02:47:20;15.63;;;14.13;;
323;SDS011;149;51.094;17.002;2023-04-24T02:49:48;16.42;;;13.55;;
323;SDS011;149;51.094;17.002;2023-04-24T02:52:15;23.25;;;18.02;;
323;SDS011;149;51.094;17.002;2023-04-24T02:54:43;19.58;;;14.35;;
323;SDS011;149;51.094;17.002;2023-04-24T02:57:10;19.92;;;15.85;;
323;SDS011;149;51.094;17.002;2023-04-24T02:59:36;18.63;;;14.77;;
323;SDS011;149;51.094;17.002;2023-04-24T03:02:03;18.33;;;15.13;;
323;SDS011;149;51.094;17.002;2023-04-24T03:04:30;16.80;;;14.88;;
323;SDS011;149;51.094;17.002;2023-04-24T03:06:57;17.77;;;15.95;;
323;SDS011;149;51.094;17.002;2023-04-24T03:09:25;19.50;;;15.35;;
323;SDS011;149;51.094;17.002;2023-04-24T03:11:52;18.58;;;15.95;;
323;SDS011;149;51.094;17.002;2023-04-24T03:14:19;17.00;;;15.40;;
323;SDS011;149;51.094;17.002;2023-04-24T03:16:46;19.38;;;14.82;;
323;SDS011;149;51.094;17.002;2023-04-24T03:19:12;15.10;;;13.50;;
323;SDS011;149;51.094;17.002;2023-04-24T03:21:40;17.15;;;15.45;;
323;SDS011;149;51.094;17.002;2023-04-24T03:24:09;17.08;;;15.25;;
323;SDS011;149;51.094;17.002;2023-04-24T03:26:36;17.75;;;13.05;;
323;SDS011;149;51.094;17.002;2023-04-24T03:29:03;14.70;;;12.95;;
323;SDS011;149;51.094;17.002;2023-04-24T03:31:30;17.58;;;15.13;;
323;SDS011;149;51.094;17.002;2023-04-24T03:33:57;15.23;;;13.15;;
323;SDS011;149;51.094;17.002;2023-04-24T03:36:24;15.15;;;13.07;;
323;SDS011;149;51.094;17.002;2023-04-24T03:38:52;16.88;;;12.95;;
323;SDS011;149;51.094;17.002;2023-04-24T03:41:19;17.23;;;13.52;;
323;SDS011;149;51.094;17.002;2023-04-24T03:43:46;22.35;;;13.50;;
323;SDS011;149;51.094;17.002;2023-04-24T03:46:13;14.90;;;13.40;;
323;SDS011;149;51.094;17.002;2023-04-24T03:48:40;21.17;;;13.80;;
323;SDS011;149;51.094;17.002;2023-04-24T03:51:06;21.20;;;14.98;;
323;SDS011;149;51.094;17.002;2023-04-24T03:53:33;16.98;;;13.02;;
323;SDS011;149;51.094;17.002;2023-04-24T03:56:01;17.75;;;14.10;;
323;SDS011;149;51.094;17.002;2023-04-24T03:58:27;15.63;;;14.02;;
323;SDS011;149;51.094;17.002;2023-04-24T04:00:54;18.77;;;15.55;;
323;SDS011;149;51.094;17.002;2023-04-24T04:03:25;20.35;;;14.80;;
323;SDS011;149;51.094;17.002;2023-04-24T04:05:53;18.20;;;13.95;;
323;SDS011;149;51.094;17.002;2023-04-24T04:08:20;16.65;;;13.80;;
323;SDS011;149;51.094;17.002;2023-04-24T04:10:47;16.42;;;13.00;;
323;SDS011;149;51.094;17.002;2023-04-24T04:13:13;17.15;;;14.70;;
323;SDS011;149;51.094;17.002;2023-04-24T04:15:40;22.10;;;14.75;;
323;SDS011;149;51.094;17.002;2023-04-24T04:18:07;17.80;;;14.63;;
323;SDS011;149;51.094;17.002;2023-04-24T04:20:35;16.38;;;13.43;;
323;SDS011;149;51.094;17.002;2023-04-24T04:23:01;13.88;;;12.48;;
323;SDS011;149;51.094;17.002;2023-04-24T04:25:29;12.77;;;11.48;;
323;SDS011;149;51.094;17.002;2023-04-24T04:27:58;19.63;;;14.00;;
323;SDS011;149;51.094;17.002;2023-04-24T04:30:26;13.77;;;12.20;;
323;SDS011;149;51.094;17.002;2023-04-24T04:32:52;13.32;;;11.93;;
323;SDS011;149;51.094;17.002;2023-04-24T04:35:19;13.82;;;11.88;;
323;SDS011;149;51.094;17.002;2023-04-24T04:37:48;13.80;;;11.23;;
323;SDS011;149;51.094;17.002;2023-04-24T04:40:15;13.98;;;12.40;;
323;SDS011;149;51.094;17.002;2023-04-24T04:42:43;13.80;;;11.82;;
323;SDS011;149;51.094;17.002;2023-04-24T04:45:12;12.65;;;11.15;;
323;SDS011;149;51.094;17.002;2023-04-24T04:47:39;13.30;;;11.90;;
323;SDS011;149;51.094;17.002;2023-04-24T04:50:07;16.17;;;12.45;;
323;SDS011;149;51.094;17.002;2023-04-24T04:52:34;17.73;;;12.25;;
323;SDS011;149;51.094;17.002;2023-04-24T04:55:01;14.07;;;12.10;;
323;SDS011;149;51.094;17.002;2023-04-24T04:57:31;13.57;;;11.50;;
323;SDS011;149;51.094;17.002;2023-04-24T04:59:59;14.55;;;11.05;;
323;SDS011;149;51.094;17.002;2023-04-24T05:02:26;18.98;;;13.25;;
323;SDS011;149;51.094;17.002;2023-04-24T05:04:55;14.77;;;13.23;;
323;SDS011;149;51.094;17.002;2023-04-24T05:07:23;13.52;;;11.88;;
323;SDS011;149;51.094;17.002;2023-04-24T05:09:49;14.37;;;10.20;;
323;SDS011;149;51.094;17.002;2023-04-24T05:12:18;15.23;;;11.55;;
323;SDS011;149;51.094;17.002;2023-04-24T05:14:45;12.90;;;11.50;;
323;SDS011;149;51.094;17.002;2023-04-24T05:17:12;15.33;;;11.63;;
323;SDS011;149;51.094;17.002;2023-04-24T05:19:39;11.70;;;9.50;;
323;SDS011;149;51.094;17.002;2023-04-24T05:22:06;12.13;;;10.93;;
323;SDS011;149;51.094;17.002;2023-04-24T05:24:33;11.37;;;10.27;;
323;SDS011;149;51.094;17.002;2023-04-24T05:27:00;10.83;;;9.73;;
323;SDS011;149;51.094;17.002;2023-04-24T05:29:29;13.23;;;9.20;;
323;SDS011;149;51.094;17.002;2023-04-24T05:31:57;10.23;;;9.33;;
323;SDS011;149;51.094;17.002;2023-04-24T05:34:24;9.90;;;9.00;;
323;SDS011;149;51.094;17.002;2023-04-24T05:36:51;10.40;;;9.30;;
323;SDS011;149;51.094;17.002;2023-04-24T05:39:18;13.73;;;10.47;;
323;SDS011;149;51.094;17.002;2023-04-24T05:41:46;10.17;;;9.07;;
323;SDS011;149;51.094;17.002;2023-04-24T05:44:13;9.63;;;8.47;;
323;SDS011;149;51.094;17.002;2023-04-24T05:46:40;10.13;;;9.07;;
323;SDS011;149;51.094;17.002;2023-04-24T05:49:08;15.43;;;9.03;;
323;SDS011;149;51.094;17.002;2023-04-24T05:51:35;10.03;;;8.33;;
323;SDS011;149;51.094;17.002;2023-04-24T05:54:02;8.70;;;8.00;;
323;SDS011;149;51.094;17.002;2023-04-24T05:56:29;8.03;;;7.23;;
323;SDS011;149;51.094;17.002;2023-04-24T05:58:57;8.10;;;7.37;;
323;SDS011;149;51.094;17.002;2023-04-24T06:01:24;11.60;;;7.80;;
323;SDS011;149;51.094;17.002;2023-04-24T06:03:51;10.57;;;7.93;;
323;SDS011;149;51.094;17.002;2023-04-24T06:06:19;8.90;;;7.33;;
323;SDS011;149;51.094;17.002;2023-04-24T06:08:47;8.27;;;7.50;;
323;SDS011;149;51.094;17.002;2023-04-24T06:11:14;6.90;;;6.30;;
323;SDS011;149;51.094;17.002;2023-04-24T06:13:41;7.10;;;6.50;;
323;SDS011;149;51.094;17.002;2023-04-24T06:16:08;12.90;;;6.90;;
323;SDS011;149;51.094;17.002;2023-04-24T06:18:35;7.10;;;6.30;;
323;SDS011;149;51.094;17.002;2023-04-24T06:21:01;8.13;;;6.30;;
323;SDS011;149;51.094;17.002;2023-04-24T06:23:28;6.73;;;6.03;;
323;SDS011;149;51.094;17.002;2023-04-24T06:25:59;8.80;;;5.40;;
323;SDS011;149;51.094;17.002;2023-04-24T06:28:26;8.13;;;6.37;;
323;SDS011;149;51.094;17.002;2023-04-24T06:30:53;8.00;;;6.63;;
323;SDS011;149;51.094;17.002;2023-04-24T06:33:20;8.10;;;7.37;;
323;SDS011;149;51.094;17.002;2023-04-24T06:35:49;18.83;;;10.30;;
323;SDS011;149;51.094;17.002;2023-04-24T06:38:16;14.33;;;7.60;;
323;SDS011;149;51.094;17.002;2023-04-24T06:40:43;6.57;;;5.90;;
323;SDS011;149;51.094;17.002;2023-04-24T06:43:12;7.10;;;6.00;;
323;SDS011;149;51.094;17.002;2023-04-24T06:45:41;5.43;;;4.87;;
323;SDS011;149;51.094;17.002;2023-04-24T06:48:09;11.40;;;6.37;;
323;SDS011;149;51.094;17.002;2023-04-24T06:50:36;8.50;;;6.03;;
323;SDS011;149;51.094;17.002;2023-04-24T06:53:04;15.37;;;7.33;;
323;SDS011;149;51.094;17.002;2023-04-24T06:55:31;9.23;;;7.13;;
323;SDS011;149;51.094;17.002;2023-04-24T06:57:59;18.20;;;9.47;;
323;SDS011;149;51.094;17.002;2023-04-24T07:00:27;6.90;;;5.57;;
323;SDS011;149;51.094;17.002;2023-04-24T07:02:54;17.23;;;8.20;;
323;SDS011;149;51.094;17.002;2023-04-24T07:05:21;15.50;;;7.20;;
323;SDS011;149;51.094;17.002;2023-04-24T07:07:49;14.70;;;6.83;;
323;SDS011;149;51.094;17.002;2023-04-24T07:10:17;7.33;;;5.83;;
323;SDS011;149;51.094;17.002;2023-04-24T07:12:45;12.23;;;7.30;;
323;SDS011;149;51.094;17.002;2023-04-24T07:15:13;7.77;;;6.87;;
323;SDS011;149;51.094;17.002;2023-04-24T07:17:39;9.40;;;5.80;;
323;SDS011;149;51.094;17.002;2023-04-24T07:20:10;7.37;;;6.63;;
323;SDS011;149;51.094;17.002;2023-04-24T07:22:38;10.80;;;8.13;;
323;SDS011;149;51.094;17.002;2023-04-24T07:25:05;10.70;;;9.20;;
323;SDS011;149;51.094;17.002;2023-04-24T07:27:34;12.73;;;7.87;;
323;SDS011;149;51.094;17.002;2023-04-24T07:30:03;15.10;;;6.80;;
323;SDS011;149;51.094;17.002;2023-04-24T07:32:30;11.70;;;7.70;;
323;SDS011;149;51.094;17.002;2023-04-24T07:34:57;7.93;;;6.77;;
323;SDS011;149;51.094;17.002;2023-04-24T07:37:25;8.73;;;7.23;;
323;SDS011;149;51.094;17.002;2023-04-24T07:39:54;6.17;;;5.53;;
323;SDS011;149;51.094;17.002;2023-04-24T07:42:22;8.53;;;7.73;;
323;SDS011;149;51.094;17.002;2023-04-24T07:44:48;13.20;;;7.50;;
323;SDS011;149;51.094;17.002;2023-04-24T07:47:17;7.17;;;6.13;;
323;SDS011;149;51.094;17.002;2023-04-24T07:49:44;15.80;;;6.30;;
323;SDS011;149;51.094;17.002;2023-04-24T07:52:11;13.20;;;5.73;;
323;SDS011;149;51.094;17.002;2023-04-24T07:54:38;12.67;;;6.57;;
323;SDS011;149;51.094;17.002;2023-04-24T07:57:05;10.60;;;7.27;;
323;SDS011;149;51.094;17.002;2023-04-24T07:59:32;7.57;;;4.80;;
323;SDS011;149;51.094;17.002;2023-04-24T08:01:59;15.80;;;5.43;;
323;SDS011;149;51.094;17.002;2023-04-24T08:04:28;16.77;;;6.53;;
323;SDS011;149;51.094;17.002;2023-04-24T08:06:55;6.57;;;5.60;;
323;SDS011;149;51.094;17.002;2023-04-24T08:09:22;7.33;;;5.80;;
323;SDS011;149;51.094;17.002;2023-04-24T08:11:52;6.40;;;5.30;;
323;SDS011;149;51.094;17.002;2023-04-24T08:14:19;5.20;;;4.70;;
323;SDS011;149;51.094;17.002;2023-04-24T08:16:46;7.30;;;5.00;;
323;SDS011;149;51.094;17.002;2023-04-24T08:19:13;5.97;;;4.93;;
323;SDS011;149;51.094;17.002;2023-04-24T08:21:40;8.27;;;5.20;;
323;SDS011;149;51.094;17.002;2023-04-24T08:24:07;5.57;;;4.50;;
323;SDS011;149;51.094;17.002;2023-04-24T08:26:34;6.33;;;3.63;;
323;SDS011;149;51.094;17.002;2023-04-24T08:29:01;9.10;;;5.57;;
323;SDS011;149;51.094;17.002;2023-04-24T08:31:29;3.93;;;3.63;;
323;SDS011;149;51.094;17.002;2023-04-24T08:33:56;5.17;;;4.60;;
323;SDS011;149;51.094;17.002;2023-04-24T08:36:23;6.20;;;4.70;;
323;SDS011;149;51.094;17.002;2023-04-24T08:39:08;9.23;;;4.80;;
323;SDS011;149;51.094;17.002;2023-04-24T08:41:35;5.37;;;4.67;;
323;SDS011;149;51.094;17.002;2023-04-24T08:44:04;7.33;;;5.43;;
323;SDS011;149;51.094;17.002;2023-04-24T08:46:35;6.33;;;5.00;;
323;SDS011;149;51.094;17.002;2023-04-24T08:49:03;5.77;;;5.27;;
323;SDS011;149;51.094;17.002;2023-04-24T08:51:31;5.63;;;5.07;;
323;SDS011;149;51.094;17.002;2023-04-24T08:53:58;8.07;;;5.80;;
323;SDS011;149;51.094;17.002;2023-04-24T08:56:25;10.30;;;5.50;;
323;SDS011;149;51.094;17.002;2023-04-24T08:58:54;8.90;;;5.67;;
323;SDS011;149;51.094;17.002;2023-04-24T09:01:21;5.23;;;4.73;;
323;SDS011;149;51.094;17.002;2023-04-24T09:03:49;8.97;;;6.53;;
323;SDS011;149;51.094;17.002;2023-04-24T09:06:17;5.57;;;5.07;;
323;SDS011;149;51.094;17.002;2023-04-24T09:08:50;5.20;;;4.80;;
323;SDS011;149;51.094;17.002;2023-04-24T09:11:20;4.33;;;4.03;;
323;SDS011;149;51.094;17.002;2023-04-24T09:13:47;5.77;;;4.80;;
323;SDS011;149;51.094;17.002;2023-04-24T09:16:14;6.03;;;5.37;;
323;SDS011;149;51.094;17.002;2023-04-24T09:18:41;6.30;;;4.77;;
323;SDS011;149;51.094;17.002;2023-04-24T09:21:10;4.37;;;3.77;;
323;SDS011;149;51.094;17.002;2023-04-24T09:23:37;4.87;;;4.40;;
323;SDS011;149;51.094;17.002;2023-04-24T09:26:05;4.47;;;4.03;;
323;SDS011;149;51.094;17.002;2023-04-24T09:28:33;4.57;;;3.80;;
323;SDS011;149;51.094;17.002;2023-04-24T09:33:36;5.03;;;4.40;;
323;SDS011;149;51.094;17.002;2023-04-24T09:36:04;4.03;;;3.70;;
323;SDS011;149;51.094;17.002;2023-04-24T09:38:33;5.20;;;4.70;;
323;SDS011;149;51.094;17.002;2023-04-24T09:41:03;5.77;;;5.27;;
323;SDS011;149;51.094;17.002;2023-04-24T09:43:32;5.87;;;5.27;;
323;SDS011;149;51.094;17.002;2023-04-24T09:46:04;7.50;;;5.50;;
323;SDS011;149;51.094;17.002;2023-04-24T09:48:33;6.20;;;5.30;;
323;SDS011;149;51.094;17.002;2023-04-24T09:51:02;6.30;;;5.70;;
323;SDS011;149;51.094;17.002;2023-04-24T09:53:30;5.77;;;5.20;;
323;SDS011;149;51.094;17.002;2023-04-24T09:56:07;7.37;;;6.77;;
323;SDS011;149;51.094;17.002;2023-04-24T09:58:35;5.93;;;5.37;;
323;SDS011;149;51.094;17.002;2023-04-24T10:01:02;6.50;;;5.90;;
323;SDS011;149;51.094;17.002;2023-04-24T10:03:33;6.40;;;5.80;;
323;SDS011;149;51.094;17.002;2023-04-24T10:06:00;7.83;;;6.33;;
323;SDS011;149;51.094;17.002;2023-04-24T10:08:35;6.73;;;6.03;;
323;SDS011;149;51.094;17.002;2023-04-24T10:11:02;6.60;;;6.00;;
323;SDS011;149;51.094;17.002;2023-04-24T10:13:29;11.57;;;5.57;;
323;SDS011;149;51.094;17.002;2023-04-24T10:15:58;6.10;;;5.40;;
323;SDS011;149;51.094;17.002;2023-04-24T10:18:27;7.00;;;6.40;;
323;SDS011;149;51.094;17.002;2023-04-24T10:20:54;10.67;;;6.30;;
323;SDS011;149;51.094;17.002;2023-04-24T10:23:23;19.60;;;6.73;;
323;SDS011;149;51.094;17.002;2023-04-24T10:25:52;6.17;;;5.67;;
323;SDS011;149;51.094;17.002;2023-04-24T10:28:19;9.20;;;6.80;;
323;SDS011;149;51.094;17.002;2023-04-24T10:30:48;9.47;;;6.67;;
323;SDS011;149;51.094;17.002;2023-04-24T10:33:16;8.97;;;6.53;;
323;SDS011;149;51.094;17.002;2023-04-24T10:35:44;12.20;;;6.23;;
323;SDS011;149;51.094;17.002;2023-04-24T10:38:21;12.10;;;6.83;;
323;SDS011;149;51.094;17.002;2023-04-24T10:40:51;9.77;;;5.30;;
323;SDS011;149;51.094;17.002;2023-04-24T10:43:23;12.30;;;6.23;;
323;SDS011;149;51.094;17.002;2023-04-24T10:46:08;10.97;;;7.50;;
323;SDS011;149;51.094;17.002;2023-04-24T10:48:41;6.97;;;6.27;;
323;SDS011;149;51.094;17.002;2023-04-24T10:51:12;5.73;;;5.17;;
323;SDS011;149;51.094;17.002;2023-04-24T10:53:40;9.03;;;6.03;;
323;SDS011;149;51.094;17.002;2023-04-24T10:56:08;9.40;;;5.27;;
323;SDS011;149;51.094;17.002;2023-04-24T10:58:40;8.97;;;5.40;;
323;SDS011;149;51.094;17.002;2023-04-24T11:01:28;8.70;;;5.70;;
323;SDS011;149;51.094;17.002;2023-04-24T11:03:58;15.27;;;7.03;;
323;SDS011;149;51.094;17.002;2023-04-24T11:06:29;9.47;;;7.00;;
323;SDS011;149;51.094;17.002;2023-04-24T11:09:05;7.80;;;7.00;;
323;SDS011;149;51.094;17.002;2023-04-24T11:11:36;10.10;;;7.47;;
323;SDS011;149;51.094;17.002;2023-04-24T11:14:04;12.50;;;7.93;;
323;SDS011;149;51.094;17.002;2023-04-24T11:19:18;7.07;;;6.33;;
323;SDS011;149;51.094;17.002;2023-04-24T11:24:48;7.03;;;5.90;;
323;SDS011;149;51.094;17.002;2023-04-24T11:27:17;12.07;;;8.37;;
323;SDS011;149;51.094;17.002;2023-04-24T11:32:25;7.93;;;6.60;;
323;SDS011;149;51.094;17.002;2023-04-24T11:37:52;6.97;;;5.77;;
323;SDS011;149;51.094;17.002;2023-04-24T11:40:22;8.03;;;6.00;;
323;SDS011;149;51.094;17.002;2023-04-24T11:42:50;18.93;;;6.70;;
323;SDS011;149;51.094;17.002;2023-04-24T11:45:22;7.70;;;6.17;;
323;SDS011;149;51.094;17.002;2023-04-24T11:47:50;7.20;;;6.50;;
323;SDS011;149;51.094;17.002;2023-04-24T11:50:19;7.90;;;6.40;;
323;SDS011;149;51.094;17.002;2023-04-24T11:52:48;6.50;;;5.87;;
323;SDS011;149;51.094;17.002;2023-04-24T11:57:47;7.80;;;6.63;;
323;SDS011;149;51.094;17.002;2023-04-24T12:14:44;6.43;;;5.83;;
323;SDS011;149;51.094;17.002;2023-04-24T12:17:17;6.60;;;6.00;;
323;SDS011;149;51.094;17.002;2023-04-24T12:19:49;6.10;;;5.60;;
323;SDS011;149;51.094;17.002;2023-04-24T12:22:17;6.40;;;5.80;;
323;SDS011;149;51.094;17.002;2023-04-24T12:25:00;9.17;;;6.17;;
323;SDS011;149;51.094;17.002;2023-04-24T12:27:29;6.27;;;5.70;;
323;SDS011;149;51.094;17.002;2023-04-24T12:29:58;5.90;;;5.30;;
323;SDS011;149;51.094;17.002;2023-04-24T12:32:25;6.70;;;4.60;;
323;SDS011;149;51.094;17.002;2023-04-24T12:34:53;6.93;;;4.93;;
323;SDS011;149;51.094;17.002;2023-04-24T12:37:22;11.63;;;5.30;;
323;SDS011;149;51.094;17.002;2023-04-24T12:39:58;8.13;;;5.53;;
323;SDS011;149;51.094;17.002;2023-04-24T12:42:27;9.70;;;6.10;;
323;SDS011;149;51.094;17.002;2023-04-24T12:44:56;10.23;;;6.00;;
323;SDS011;149;51.094;17.002;2023-04-24T12:47:31;8.53;;;5.50;;
323;SDS011;149;51.094;17.002;2023-04-24T12:49:59;7.30;;;5.93;;
323;SDS011;149;51.094;17.002;2023-04-24T12:52:28;6.37;;;3.77;;
323;SDS011;149;51.094;17.002;2023-04-24T12:54:57;7.27;;;5.53;;
323;SDS011;149;51.094;17.002;2023-04-24T12:57:27;5.50;;;3.93;;
323;SDS011;149;51.094;17.002;2023-04-24T12:59:58;6.47;;;5.83;;
323;SDS011;149;51.094;17.002;2023-04-24T13:02:26;7.63;;;6.93;;
323;SDS011;149;51.094;17.002;2023-04-24T13:04:55;9.13;;;5.40;;
323;SDS011;149;51.094;17.002;2023-04-24T13:07:23;4.23;;;3.90;;
323;SDS011;149;51.094;17.002;2023-04-24T13:09:50;3.57;;;3.27;;
323;SDS011;149;51.094;17.002;2023-04-24T13:12:18;4.40;;;2.80;;
323;SDS011;149;51.094;17.002;2023-04-24T13:14:46;5.80;;;2.20;;
323;SDS011;149;51.094;17.002;2023-04-24T13:17:13;2.97;;;2.50;;
323;SDS011;149;51.094;17.002;2023-04-24T13:19:43;3.43;;;2.53;;
323;SDS011;149;51.094;17.002;2023-04-24T13:22:11;2.40;;;2.20;;
323;SDS011;149;51.094;17.002;2023-04-24T13:24:39;4.07;;;2.90;;
323;SDS011;149;51.094;17.002;2023-04-24T13:27:07;4.67;;;2.20;;
323;SDS011;149;51.094;17.002;2023-04-24T13:29:36;2.40;;;2.03;;
323;SDS011;149;51.094;17.002;2023-04-24T13:32:03;2.90;;;2.57;;
323;SDS011;149;51.094;17.002;2023-04-24T13:34:30;3.93;;;2.40;;
323;SDS011;149;51.094;17.002;2023-04-24T13:36:57;9.30;;;2.30;;
323;SDS011;149;51.094;17.002;2023-04-24T13:39:25;3.63;;;1.87;;
323;SDS011;149;51.094;17.002;2023-04-24T13:41:53;2.17;;;1.97;;
323;SDS011;149;51.094;17.002;2023-04-24T13:44:20;3.30;;;1.97;;
323;SDS011;149;51.094;17.002;2023-04-24T13:46:49;7.23;;;3.00;;
323;SDS011;149;51.094;17.002;2023-04-24T13:49:18;3.67;;;2.60;;
323;SDS011;149;51.094;17.002;2023-04-24T13:51:45;3.07;;;2.87;;
323;SDS011;149;51.094;17.002;2023-04-24T13:54:13;4.43;;;2.90;;
323;SDS011;149;51.094;17.002;2023-04-24T13:56:40;3.70;;;2.50;;
323;SDS011;149;51.094;17.002;2023-04-24T13:59:07;5.40;;;2.10;;
323;SDS011;149;51.094;17.002;2023-04-24T14:01:35;2.77;;;2.57;;
323;SDS011;149;51.094;17.002;2023-04-24T14:04:02;2.93;;;2.60;;
323;SDS011;149;51.094;17.002;2023-04-24T14:06:29;3.53;;;2.90;;
323;SDS011;149;51.094;17.002;2023-04-24T14:08:57;4.20;;;2.27;;
323;SDS011;149;51.094;17.002;2023-04-24T14:11:24;3.00;;;2.50;;
323;SDS011;149;51.094;17.002;2023-04-24T14:13:53;2.37;;;2.10;;
323;SDS011;149;51.094;17.002;2023-04-24T14:16:22;4.83;;;2.90;;
323;SDS011;149;51.094;17.002;2023-04-24T14:18:49;4.20;;;3.80;;
323;SDS011;149;51.094;17.002;2023-04-24T14:21:16;4.70;;;3.57;;
323;SDS011;149;51.094;17.002;2023-04-24T14:23:44;6.10;;;2.70;;
323;SDS011;149;51.094;17.002;2023-04-24T14:26:12;5.07;;;2.30;;
323;SDS011;149;51.094;17.002;2023-04-24T14:28:39;2.30;;;2.10;;
323;SDS011;149;51.094;17.002;2023-04-24T14:31:07;7.30;;;3.13;;
323;SDS011;149;51.094;17.002;2023-04-24T14:33:34;5.30;;;4.10;;
323;SDS011;149;51.094;17.002;2023-04-24T14:36:01;6.10;;;2.43;;
323;SDS011;149;51.094;17.002;2023-04-24T14:38:31;3.77;;;2.17;;
323;SDS011;149;51.094;17.002;2023-04-24T14:40:58;6.03;;;2.60;;
323;SDS011;149;51.094;17.002;2023-04-24T14:43:33;4.47;;;3.20;;
323;SDS011;149;51.094;17.002;2023-04-24T14:46:02;3.30;;;3.00;;
323;SDS011;149;51.094;17.002;2023-04-24T14:48:29;13.33;;;3.27;;
323;SDS011;149;51.094;17.002;2023-04-24T14:50:57;3.80;;;3.00;;
323;SDS011;149;51.094;17.002;2023-04-24T14:53:24;4.40;;;2.87;;
323;SDS011;149;51.094;17.002;2023-04-24T14:55:51;2.57;;;2.37;;
323;SDS011;149;51.094;17.002;2023-04-24T14:58:18;3.90;;;3.30;;
323;SDS011;149;51.094;17.002;2023-04-24T15:00:45;4.60;;;4.13;;
323;SDS011;149;51.094;17.002;2023-04-24T15:03:12;6.10;;;3.57;;
323;SDS011;149;51.094;17.002;2023-04-24T15:05:41;4.23;;;3.47;;
323;SDS011;149;51.094;17.002;2023-04-24T15:08:08;3.00;;;2.70;;
323;SDS011;149;51.094;17.002;2023-04-24T15:10:36;6.93;;;3.43;;
323;SDS011;149;51.094;17.002;2023-04-24T15:13:03;3.00;;;2.73;;
323;SDS011;149;51.094;17.002;2023-04-24T15:15:29;2.20;;;2.00;;
323;SDS011;149;51.094;17.002;2023-04-24T15:17:56;1.90;;;1.80;;
323;SDS011;149;51.094;17.002;2023-04-24T15:20:23;5.57;;;2.90;;
323;SDS011;149;51.094;17.002;2023-04-24T15:22:50;2.83;;;2.63;;
323;SDS011;149;51.094;17.002;2023-04-24T15:25:17;3.20;;;2.93;;
323;SDS011;149;51.094;17.002;2023-04-24T15:27:46;6.50;;;3.30;;
323;SDS011;149;51.094;17.002;2023-04-24T15:30:13;4.33;;;2.90;;
323;SDS011;149;51.094;17.002;2023-04-24T15:32:46;3.07;;;2.77;;
323;SDS011;149;51.094;17.002;2023-04-24T15:35:17;3.63;;;2.57;;
323;SDS011;149;51.094;17.002;2023-04-24T15:37:46;3.57;;;3.10;;
323;SDS011;149;51.094;17.002;2023-04-24T15:40:14;2.77;;;2.10;;
323;SDS011;149;51.094;17.002;2023-04-24T15:42:42;2.70;;;2.20;;
323;SDS011;149;51.094;17.002;2023-04-24T15:45:09;3.13;;;2.85;;
323;SDS011;149;51.094;17.002;2023-04-24T15:47:36;1.87;;;1.50;;
323;SDS011;149;51.094;17.002;2023-04-24T15:50:06;2.73;;;1.87;;
323;SDS011;149;51.094;17.002;2023-04-24T15:52:39;10.40;;;1.77;;
323;SDS011;149;51.094;17.002;2023-04-24T15:55:06;4.10;;;1.77;;